Eships Agamid — ZDHS9 — position and weather

sailwx.info

Track history (hours):
 
Tides and Currents Weather Stations Pressure Air Temp Water Temp Dewpoint Dewpoint Depression Visibility Wind Speed Wind Dir Waves Ship Positions

Eships Agamid

Last reported at 2014-Jul-27 18:27 UTC. Time now 2014-Jul-28 10:25 UTC.
Position N 47°09' W 002°27'.

Length 128 m; draft 6 m.

Type: Tanker. MMSI: 236355000.

Date/timePositionNaut miles runAvg speedWind from/ knotsBaromVisibWave heightAir tempDewpointWater temp
2014-Jul-27 18:27N 47°09' W 002°27'0 0.1
2014-Jul-27 17:33N 47°09' W 002°27'0 0.0
2014-Jul-27 16:21N 47°09' W 002°27'0 0.0
2014-Jul-27 15:33N 47°09' W 002°27'0 0.1
2014-Jul-27 14:33N 47°09' W 002°26'0 0.0
2014-Jul-27 13:33N 47°09' W 002°26'0 0.0
2014-Jul-27 12:33N 47°09' W 002°27'0 0.0
2014-Jul-27 11:33N 47°09' W 002°27'0 0.0
2014-Jul-27 06:33N 47°09' W 002°27'0 0.1
2014-Jul-27 05:27N 47°09' W 002°27'0 0.0
2014-Jul-27 04:33N 47°09' W 002°27'0 0.1
2014-Jul-27 02:27N 47°09' W 002°27'0 0.0
2014-Jul-27 01:21N 47°09' W 002°27'0 0.0
2014-Jul-26 20:33N 47°09' W 002°27'0 0.0
2014-Jul-26 19:18N 47°09' W 002°27'0 0.0
2014-Jul-26 18:33N 47°09' W 002°27'0 0.0
2014-Jul-26 07:27N 47°09' W 002°27'0 0.0
2014-Jul-26 06:33N 47°09' W 002°27'0 0.0
2014-Jul-26 05:33N 47°09' W 002°27'0 0.0
2014-Jul-26 04:33N 47°09' W 002°27'0 0.0
2014-Jul-26 03:33N 47°09' W 002°27'0 0.0
2014-Jul-26 02:32N 47°09' W 002°27'0 0.1
2014-Jul-26 01:33N 47°09' W 002°27'2 0.3
2014-Jul-25 20:32N 47°07' W 002°28'9 9.3
2014-Jul-25 19:33N 47°01' W 002°37'1111.4
2014-Jul-25 18:33N 46°59' W 002°53'1612.4
2014-Jul-25 17:14N 47°07' W 003°14'913.3
2014-Jul-25 16:33N 47°13' W 003°24'1514.4
2014-Jul-25 15:33N 47°25' W 003°35'1411.7
2014-Jul-25 14:20N 47°39' W 003°38'911.9
2014-Jul-25 13:33N 47°41' W 003°24'4 3.4
2014-Jul-25 12:32N 47°44' W 003°21'0 0.0
2014-Jul-25 11:32N 47°44' W 003°21'0 0.0
2014-Jul-25 10:32N 47°44' W 003°21'0 0.0
2014-Jul-25 09:32N 47°44' W 003°21'0 0.0
2014-Jul-25 08:32N 47°44' W 003°21'0 0.0
2014-Jul-25 07:32N 47°44' W 003°21'0 0.0
2014-Jul-25 06:32N 47°44' W 003°21'0 0.0
2014-Jul-25 05:32N 47°44' W 003°21'0 0.0
2014-Jul-25 04:32N 47°44' W 003°21'0 0.0
2014-Jul-25 03:32N 47°44' W 003°21'0 0.0
2014-Jul-25 02:32N 47°44' W 003°21'0 0.0
2014-Jul-25 01:32N 47°44' W 003°21'0 0.0
2014-Jul-25 00:32N 47°44' W 003°21'0 0.0
2014-Jul-24 23:32N 47°44' W 003°21'0 0.0
2014-Jul-24 22:33N 47°44' W 003°21'0 0.0
2014-Jul-24 21:33N 47°44' W 003°21'0 0.0
2014-Jul-24 20:33N 47°44' W 003°21'0 0.0
2014-Jul-24 19:33N 47°44' W 003°21'0 0.0
2014-Jul-24 18:33N 47°44' W 003°21'0 0.0
2014-Jul-24 17:33N 47°44' W 003°21'0 0.0
2014-Jul-24 16:33N 47°44' W 003°21'0 0.0
2014-Jul-24 15:33N 47°44' W 003°21'0 0.0
2014-Jul-24 14:33N 47°44' W 003°21'0 0.0
2014-Jul-24 13:33N 47°44' W 003°21'3 2.6
2014-Jul-24 12:33N 47°42' W 003°23'9 8.8
2014-Jul-24 11:33N 47°40' W 003°36'4 4.2
2014-Jul-24 10:33N 47°38' W 003°41'1110.3
2014-Jul-24 09:30N 47°27' W 003°37'1111.0
2014-Jul-24 08:30N 47°18' W 003°29'1110.8
2014-Jul-24 07:27N 47°09' W 003°18'1511.1
2014-Jul-24 06:03N 47°01' W 002°59'711.2
2014-Jul-24 05:25N 47°00' W 002°48'1011.2
2014-Jul-24 04:34N 47°02' W 002°35'1211.3
2014-Jul-24 03:29N 47°09' W 002°20'1212.7
2014-Jul-24 02:33N 47°18' W 002°08'15 0.5
2014-Jul-22 22:23N 47°09' W 002°25'0 0.0
2014-Jul-22 17:26N 47°09' W 002°26'0 0.0
2014-Jul-22 03:14N 47°09' W 002°26'0 0.1
2014-Jul-22 02:32N 47°09' W 002°26'7 0.7
2014-Jul-21 16:32N 47°03' W 002°30'4812.0
2014-Jul-21 12:32N 47°24' W 003°34'1512.5
2014-Jul-21 11:21N 47°38' W 003°41'911.6
2014-Jul-21 10:34N 47°40' W 003°28'6 5.5
2014-Jul-21 09:31N 47°44' W 003°21'0 0.0
2014-Jul-21 08:31N 47°44' W 003°21'0 0.0
2014-Jul-21 07:31N 47°44' W 003°21'0 0.0
2014-Jul-21 06:31N 47°44' W 003°21'0 0.0
2014-Jul-21 05:31N 47°44' W 003°21'0 0.0
2014-Jul-21 04:31N 47°44' W 003°21'0 0.0
2014-Jul-21 03:31N 47°44' W 003°21'0 0.0
2014-Jul-21 02:34N 47°44' W 003°21'0 0.0
2014-Jul-21 01:33N 47°44' W 003°21'0 0.0
2014-Jul-21 00:34N 47°44' W 003°21'0 0.0
2014-Jul-20 23:33N 47°44' W 003°21'0 0.0
2014-Jul-20 22:33N 47°44' W 003°21'0 0.0
2014-Jul-20 21:33N 47°44' W 003°21'0 0.0
2014-Jul-20 20:34N 47°44' W 003°21'0 0.0
2014-Jul-20 19:33N 47°44' W 003°21'0 0.0
2014-Jul-20 18:33N 47°44' W 003°21'0 0.0
2014-Jul-20 17:34N 47°44' W 003°21'0 0.0
2014-Jul-20 16:34N 47°44' W 003°21'0 0.0
2014-Jul-20 15:33N 47°44' W 003°21'0 0.0
2014-Jul-20 14:33N 47°44' W 003°21'0 0.0
2014-Jul-20 13:33N 47°44' W 003°21'0 0.0
2014-Jul-20 12:34N 47°44' W 003°21'0 0.0
2014-Jul-20 11:33N 47°44' W 003°21'0 0.3
2014-Jul-20 10:33N 47°44' W 003°22'7 6.9
2014-Jul-20 09:33N 47°41' W 003°31'10 8.2
2014-Jul-20 08:23N 47°34' W 003°42'1012.1
2014-Jul-20 07:31N 47°25' W 003°35'51 1.1
2014-Jul-18 08:26N 47°08' W 002°24'0 0.0
2014-Jul-18 07:15N 47°08' W 002°24'0 0.0
2014-Jul-18 03:26N 47°08' W 002°24'0 0.0
2014-Jul-18 01:32N 47°08' W 002°24'0 0.0
2014-Jul-18 00:33N 47°08' W 002°24'0 0.0
2014-Jul-17 23:33N 47°08' W 002°24'0 0.1
2014-Jul-17 22:33N 47°08' W 002°24'0 0.3
2014-Jul-17 21:33N 47°07' W 002°24'1010.4
2014-Jul-17 20:33N 47°01' W 002°36'1312.4
2014-Jul-17 19:30N 46°48' W 002°41'1313.3
2014-Jul-17 18:33N 46°37' W 002°33'  
Track history (hours):
 
Tides and Currents Weather Stations Pressure Air Temp Water Temp Dewpoint Dewpoint Depression Visibility Wind Speed Wind Dir Waves Ship Positions

Eships Agamid

Last reported at 2014-Jul-27 18:27 UTC. Time now 2014-Jul-28 10:25 UTC.
Position N 47°09' W 002°27'.

Length 128 m; draft 6 m.

Type: Tanker. MMSI: 236355000.

Date/timePositionNaut miles runAvg speedWind from/ knotsBaromVisibWave heightAir tempDewpointWater temp
2014-Jul-27 18:27N 47°09' W 002°27'0 0.1
2014-Jul-27 17:33N 47°09' W 002°27'0 0.0
2014-Jul-27 16:21N 47°09' W 002°27'0 0.0
2014-Jul-27 15:33N 47°09' W 002°27'0 0.1
2014-Jul-27 14:33N 47°09' W 002°26'0 0.0
2014-Jul-27 13:33N 47°09' W 002°26'0 0.0
2014-Jul-27 12:33N 47°09' W 002°27'0 0.0
2014-Jul-27 11:33N 47°09' W 002°27'0 0.0
2014-Jul-27 06:33N 47°09' W 002°27'0 0.1
2014-Jul-27 05:27N 47°09' W 002°27'0 0.0
2014-Jul-27 04:33N 47°09' W 002°27'0 0.1
2014-Jul-27 02:27N 47°09' W 002°27'0 0.0
2014-Jul-27 01:21N 47°09' W 002°27'0 0.0
2014-Jul-26 20:33N 47°09' W 002°27'0 0.0
2014-Jul-26 19:18N 47°09' W 002°27'0 0.0
2014-Jul-26 18:33N 47°09' W 002°27'0 0.0
2014-Jul-26 07:27N 47°09' W 002°27'0 0.0
2014-Jul-26 06:33N 47°09' W 002°27'0 0.0
2014-Jul-26 05:33N 47°09' W 002°27'0 0.0
2014-Jul-26 04:33N 47°09' W 002°27'0 0.0
2014-Jul-26 03:33N 47°09' W 002°27'0 0.0
2014-Jul-26 02:32N 47°09' W 002°27'0 0.1
2014-Jul-26 01:33N 47°09' W 002°27'2 0.3
2014-Jul-25 20:32N 47°07' W 002°28'9 9.3
2014-Jul-25 19:33N 47°01' W 002°37'1111.4
2014-Jul-25 18:33N 46°59' W 002°53'1612.4
2014-Jul-25 17:14N 47°07' W 003°14'913.3
2014-Jul-25 16:33N 47°13' W 003°24'1514.4
2014-Jul-25 15:33N 47°25' W 003°35'1411.7
2014-Jul-25 14:20N 47°39' W 003°38'911.9
2014-Jul-25 13:33N 47°41' W 003°24'4 3.4
2014-Jul-25 12:32N 47°44' W 003°21'0 0.0
2014-Jul-25 11:32N 47°44' W 003°21'0 0.0
2014-Jul-25 10:32N 47°44' W 003°21'0 0.0
2014-Jul-25 09:32N 47°44' W 003°21'0 0.0
2014-Jul-25 08:32N 47°44' W 003°21'0 0.0
2014-Jul-25 07:32N 47°44' W 003°21'0 0.0
2014-Jul-25 06:32N 47°44' W 003°21'0 0.0
2014-Jul-25 05:32N 47°44' W 003°21'0 0.0
2014-Jul-25 04:32N 47°44' W 003°21'0 0.0
2014-Jul-25 03:32N 47°44' W 003°21'0 0.0
2014-Jul-25 02:32N 47°44' W 003°21'0 0.0
2014-Jul-25 01:32N 47°44' W 003°21'0 0.0
2014-Jul-25 00:32N 47°44' W 003°21'0 0.0
2014-Jul-24 23:32N 47°44' W 003°21'0 0.0
2014-Jul-24 22:33N 47°44' W 003°21'0 0.0
2014-Jul-24 21:33N 47°44' W 003°21'0 0.0
2014-Jul-24 20:33N 47°44' W 003°21'0 0.0
2014-Jul-24 19:33N 47°44' W 003°21'0 0.0
2014-Jul-24 18:33N 47°44' W 003°21'0 0.0
2014-Jul-24 17:33N 47°44' W 003°21'0 0.0
2014-Jul-24 16:33N 47°44' W 003°21'0 0.0
2014-Jul-24 15:33N 47°44' W 003°21'0 0.0
2014-Jul-24 14:33N 47°44' W 003°21'0 0.0
2014-Jul-24 13:33N 47°44' W 003°21'3 2.6
2014-Jul-24 12:33N 47°42' W 003°23'9 8.8
2014-Jul-24 11:33N 47°40' W 003°36'4 4.2
2014-Jul-24 10:33N 47°38' W 003°41'1110.3
2014-Jul-24 09:30N 47°27' W 003°37'1111.0
2014-Jul-24 08:30N 47°18' W 003°29'1110.8
2014-Jul-24 07:27N 47°09' W 003°18'1511.1
2014-Jul-24 06:03N 47°01' W 002°59'711.2
2014-Jul-24 05:25N 47°00' W 002°48'1011.2
2014-Jul-24 04:34N 47°02' W 002°35'1211.3
2014-Jul-24 03:29N 47°09' W 002°20'1212.7
2014-Jul-24 02:33N 47°18' W 002°08'15 0.5
2014-Jul-22 22:23N 47°09' W 002°25'0 0.0
2014-Jul-22 17:26N 47°09' W 002°26'0 0.0
2014-Jul-22 03:14N 47°09' W 002°26'0 0.1
2014-Jul-22 02:32N 47°09' W 002°26'7 0.7
2014-Jul-21 16:32N 47°03' W 002°30'4812.0
2014-Jul-21 12:32N 47°24' W 003°34'1512.5
2014-Jul-21 11:21N 47°38' W 003°41'911.6
2014-Jul-21 10:34N 47°40' W 003°28'6 5.5
2014-Jul-21 09:31N 47°44' W 003°21'0 0.0
2014-Jul-21 08:31N 47°44' W 003°21'0 0.0
2014-Jul-21 07:31N 47°44' W 003°21'0 0.0
2014-Jul-21 06:31N 47°44' W 003°21'0 0.0
2014-Jul-21 05:31N 47°44' W 003°21'0 0.0
2014-Jul-21 04:31N 47°44' W 003°21'0 0.0
2014-Jul-21 03:31N 47°44' W 003°21'0 0.0
2014-Jul-21 02:34N 47°44' W 003°21'0 0.0
2014-Jul-21 01:33N 47°44' W 003°21'0 0.0
2014-Jul-21 00:34N 47°44' W 003°21'0 0.0
2014-Jul-20 23:33N 47°44' W 003°21'0 0.0
2014-Jul-20 22:33N 47°44' W 003°21'0 0.0
2014-Jul-20 21:33N 47°44' W 003°21'0 0.0
2014-Jul-20 20:34N 47°44' W 003°21'0 0.0
2014-Jul-20 19:33N 47°44' W 003°21'0 0.0
2014-Jul-20 18:33N 47°44' W 003°21'0 0.0
2014-Jul-20 17:34N 47°44' W 003°21'0 0.0
2014-Jul-20 16:34N 47°44' W 003°21'0 0.0
2014-Jul-20 15:33N 47°44' W 003°21'0 0.0
2014-Jul-20 14:33N 47°44' W 003°21'0 0.0
2014-Jul-20 13:33N 47°44' W 003°21'0 0.0
2014-Jul-20 12:34N 47°44' W 003°21'0 0.0
2014-Jul-20 11:33N 47°44' W 003°21'0 0.3
2014-Jul-20 10:33N 47°44' W 003°22'7 6.9
2014-Jul-20 09:33N 47°41' W 003°31'10 8.2
2014-Jul-20 08:23N 47°34' W 003°42'1012.1
2014-Jul-20 07:31N 47°25' W 003°35'51 1.1
2014-Jul-18 08:26N 47°08' W 002°24'0 0.0
2014-Jul-18 07:15N 47°08' W 002°24'0 0.0
2014-Jul-18 03:26N 47°08' W 002°24'0 0.0
2014-Jul-18 01:32N 47°08' W 002°24'0 0.0
2014-Jul-18 00:33N 47°08' W 002°24'0 0.0
2014-Jul-17 23:33N 47°08' W 002°24'0 0.1
2014-Jul-17 22:33N 47°08' W 002°24'0 0.3
2014-Jul-17 21:33N 47°07' W 002°24'1010.4
2014-Jul-17 20:33N 47°01' W 002°36'1312.4
2014-Jul-17 19:30N 46°48' W 002°41'1313.3
2014-Jul-17 18:33N 46°37' W 002°33'  

Dump ship's entire track history